createdAt,value
2022-11-25T00:01:15.014Z,3.15
2022-11-25T00:03:42.793Z,3.13
2022-11-25T00:06:17.924Z,3.83
2022-11-25T00:08:47.116Z,3.08
2022-11-25T00:11:14.446Z,2.72
2022-11-25T00:13:42.173Z,3.20
2022-11-25T00:16:11.335Z,3.20
2022-11-25T00:18:38.814Z,3.28
2022-11-25T00:21:10.887Z,3.20
2022-11-25T00:23:38.377Z,3.70
2022-11-25T00:26:13.139Z,3.30
2022-11-25T00:28:41.069Z,3.30
2022-11-25T00:31:16.512Z,3.53
2022-11-25T00:33:43.608Z,3.40
2022-11-25T00:36:15.751Z,2.90
2022-11-25T00:38:42.428Z,3.90
2022-11-25T00:41:27.746Z,3.53
2022-11-25T00:44:12.979Z,4.78
2022-11-25T00:46:39.653Z,3.20
2022-11-25T00:49:06.332Z,3.70
2022-11-25T00:51:33.211Z,4.40
2022-11-25T00:54:00.054Z,4.30
2022-11-25T00:56:26.959Z,4.00
2022-11-25T00:58:54.230Z,3.97
2022-11-25T01:01:22.012Z,3.97
2022-11-25T01:03:50.458Z,3.85
2022-11-25T01:06:17.328Z,3.88
2022-11-25T01:08:44.243Z,4.78
2022-11-25T01:11:12.896Z,6.10
2022-11-25T01:13:39.863Z,5.57
2022-11-25T01:16:08.655Z,6.05
2022-11-25T01:18:35.494Z,6.30
2022-11-25T01:21:11.424Z,5.50
2022-11-25T01:23:38.895Z,5.57
2022-11-25T01:26:08.119Z,4.10
2022-11-25T01:28:34.903Z,5.97
2022-11-25T01:31:08.728Z,7.00
2022-11-25T01:33:36.302Z,7.75
2022-11-25T01:36:05.267Z,6.32
2022-11-25T01:38:32.931Z,7.60
2022-11-25T01:41:00.528Z,8.45
2022-11-25T01:43:28.250Z,8.52
2022-11-25T01:46:10.148Z,8.40
2022-11-25T01:48:51.135Z,7.68
2022-11-25T01:51:32.192Z,5.90
2022-11-25T01:54:03.602Z,4.28
2022-11-25T01:56:35.971Z,4.32
2022-11-25T01:59:03.096Z,4.30
2022-11-25T02:01:30.320Z,5.50
2022-11-25T02:03:58.747Z,5.40
2022-11-25T02:06:29.147Z,5.90
2022-11-25T02:09:01.287Z,5.78
2022-11-25T02:11:30.815Z,6.20
2022-11-25T02:13:59.636Z,6.47
2022-11-25T02:16:26.428Z,7.45
2022-11-25T02:18:53.555Z,6.90
2022-11-25T02:21:33.845Z,7.25
2022-11-25T02:24:12.104Z,5.60
2022-11-25T02:26:38.930Z,5.22
2022-11-25T02:29:05.702Z,5.95
2022-11-25T02:31:32.564Z,5.75
2022-11-25T02:33:59.349Z,5.72
2022-11-25T02:36:26.039Z,6.03
2022-11-25T02:39:01.580Z,6.00
2022-11-25T02:41:43.550Z,6.10
2022-11-25T02:44:10.292Z,5.85
2022-11-25T02:46:36.944Z,6.38
2022-11-25T02:49:11.562Z,6.60
2022-11-25T02:51:40.791Z,5.65
2022-11-25T02:54:08.123Z,5.50
2022-11-25T02:56:36.672Z,5.85
2022-11-25T02:59:04.338Z,5.93
2022-11-25T03:01:31.832Z,5.45
2022-11-25T03:03:59.448Z,5.07
2022-11-25T03:06:26.641Z,5.45
2022-11-25T03:08:54.123Z,6.05
2022-11-25T03:11:20.864Z,5.88
2022-11-25T03:13:47.496Z,6.18
2022-11-25T03:16:14.298Z,5.72
2022-11-25T03:18:41.189Z,5.97
2022-11-25T03:21:07.886Z,6.07
2022-11-25T03:23:34.571Z,5.90
2022-11-25T03:26:06.041Z,5.75
2022-11-25T03:28:32.722Z,5.78
2022-11-25T03:30:59.371Z,6.35
2022-11-25T03:33:26.048Z,5.72
2022-11-25T03:35:52.844Z,6.00
2022-11-25T03:38:19.535Z,5.97
2022-11-25T03:40:47.279Z,6.07
2022-11-25T03:43:13.968Z,6.15
2022-11-25T03:45:40.647Z,5.88
2022-11-25T03:48:07.761Z,5.43
2022-11-25T03:50:34.963Z,5.50
2022-11-25T03:53:01.642Z,5.40
2022-11-25T03:55:28.352Z,5.32
2022-11-25T03:57:55.017Z,5.38
2022-11-25T04:00:22.368Z,5.15
2022-11-25T04:02:49.096Z,5.57
2022-11-25T04:05:15.938Z,5.28
2022-11-25T04:07:42.679Z,5.30
2022-11-25T04:10:09.851Z,6.40
2022-11-25T04:12:48.490Z,6.40
2022-11-25T04:15:17.192Z,5.95
2022-11-25T04:17:44.237Z,7.10
2022-11-25T04:20:12.891Z,7.40
2022-11-25T04:22:40.070Z,7.55
2022-11-25T04:25:07.707Z,6.85
2022-11-25T04:27:34.426Z,6.55
2022-11-25T04:30:01.241Z,6.50
2022-11-25T04:32:28.974Z,6.38
2022-11-25T04:34:55.645Z,5.97
2022-11-25T04:37:22.354Z,6.85
2022-11-25T04:39:49.029Z,6.80
2022-11-25T04:42:39.120Z,8.05
2022-11-25T04:45:23.052Z,7.72
2022-11-25T04:50:19.976Z,6.30
2022-11-25T04:52:46.626Z,6.32
2022-11-25T04:55:13.353Z,7.10
2022-11-25T04:57:40.195Z,7.38
2022-11-25T05:00:09.138Z,8.05
2022-11-25T05:02:35.931Z,8.55
2022-11-25T05:05:02.749Z,7.22
2022-11-25T05:07:30.115Z,7.22
2022-11-25T05:09:57.428Z,7.93
2022-11-25T05:12:27.872Z,7.03
2022-11-25T05:14:54.776Z,7.45
2022-11-25T05:17:24.398Z,7.13
2022-11-25T05:19:51.549Z,7.00
2022-11-25T05:22:23.637Z,6.63
2022-11-25T05:24:50.317Z,7.13
2022-11-25T05:27:17.972Z,6.50
2022-11-25T05:29:44.764Z,6.60
2022-11-25T05:32:11.975Z,6.60
2022-11-25T05:34:39.176Z,6.63
2022-11-25T05:37:06.712Z,6.00
2022-11-25T05:39:33.546Z,7.43
2022-11-25T05:42:00.329Z,7.53
2022-11-25T05:44:26.999Z,8.95
2022-11-25T05:46:53.902Z,7.70
2022-11-25T05:49:21.132Z,10.30
2022-11-25T05:51:48.105Z,10.20
2022-11-25T05:54:15.038Z,10.10
2022-11-25T05:56:41.858Z,13.23
2022-11-25T05:59:08.602Z,13.23
2022-11-25T06:01:35.407Z,10.57
2022-11-25T06:04:03.823Z,7.20
2022-11-25T06:06:31.106Z,6.78
2022-11-25T06:08:57.851Z,9.35
2022-11-25T06:11:25.758Z,8.95
2022-11-25T06:13:52.674Z,8.52
2022-11-25T06:16:22.528Z,15.95
2022-11-25T06:18:49.667Z,13.02
2022-11-25T06:21:16.716Z,10.75
2022-11-25T06:23:45.497Z,13.15
2022-11-25T06:26:17.992Z,19.63
2022-11-25T06:28:45.051Z,15.27
2022-11-25T06:31:18.185Z,7.68
2022-11-25T06:33:49.949Z,7.47
2022-11-25T06:36:17.775Z,14.25
2022-11-25T06:38:49.910Z,10.13
2022-11-25T06:41:17.056Z,6.82
2022-11-25T06:43:44.183Z,6.32
2022-11-25T06:46:13.868Z,5.88
2022-11-25T06:48:41.384Z,6.03
2022-11-25T06:51:12.614Z,5.15
2022-11-25T06:53:39.831Z,7.07
2022-11-25T06:56:19.973Z,7.50
2022-11-25T06:58:48.196Z,8.35
2022-11-25T07:01:16.441Z,12.68
2022-11-25T07:03:44.811Z,8.63
2022-11-25T07:06:16.434Z,7.30
2022-11-25T07:08:44.306Z,9.70
2022-11-25T07:11:24.092Z,8.13
2022-11-25T07:13:56.022Z,7.32
2022-11-25T07:16:22.844Z,6.40
2022-11-25T07:18:49.711Z,5.32
2022-11-25T07:21:22.558Z,5.53
2022-11-25T07:23:50.630Z,5.38
2022-11-25T07:26:26.010Z,4.90
2022-11-25T07:28:54.306Z,5.50
2022-11-25T07:31:32.415Z,5.88
2022-11-25T07:34:02.692Z,6.90
2022-11-25T07:36:30.990Z,10.90
2022-11-25T07:38:59.694Z,10.23
2022-11-25T07:41:28.075Z,9.20
2022-11-25T07:43:57.354Z,9.85
2022-11-25T07:46:30.396Z,6.75
2022-11-25T07:49:03.795Z,5.95
2022-11-25T07:51:36.781Z,7.25
2022-11-25T07:54:06.452Z,10.07
2022-11-25T07:56:35.471Z,5.70
2022-11-25T07:59:02.339Z,5.50
2022-11-25T08:01:29.367Z,7.35
2022-11-25T08:03:56.417Z,8.70
2022-11-25T08:06:25.622Z,9.73
2022-11-25T08:08:54.688Z,9.18
2022-11-25T08:11:27.555Z,9.30
2022-11-25T08:13:55.329Z,9.00
2022-11-25T08:16:24.295Z,5.10
2022-11-25T08:18:51.226Z,5.28
2022-11-25T08:21:18.952Z,5.30
2022-11-25T08:23:48.866Z,5.13
2022-11-25T08:26:18.696Z,4.63
2022-11-25T08:28:47.075Z,4.32
2022-11-25T08:31:25.823Z,4.30
2022-11-25T08:33:53.542Z,4.22
2022-11-25T08:36:21.709Z,6.30
2022-11-25T08:38:51.879Z,5.00
2022-11-25T08:41:21.829Z,6.57
2022-11-25T08:43:48.764Z,5.70
2022-11-25T08:46:19.984Z,5.38
2022-11-25T08:48:47.398Z,4.90
2022-11-25T08:51:17.704Z,5.25
2022-11-25T08:53:45.004Z,4.18
2022-11-25T08:59:53.044Z,4.20
2022-11-25T09:02:19.821Z,4.68
2022-11-25T09:04:46.539Z,3.13
2022-11-25T09:07:13.385Z,3.85
2022-11-25T09:09:40.285Z,3.13
2022-11-25T09:12:07.456Z,3.33
2022-11-25T09:14:34.313Z,3.50
2022-11-25T09:17:02.022Z,4.45
2022-11-25T09:19:28.849Z,5.55
2022-11-25T09:21:55.547Z,5.25
2022-11-25T09:24:22.280Z,3.17
2022-11-25T09:26:49.374Z,3.20
2022-11-25T09:29:16.075Z,2.95
2022-11-25T09:31:42.897Z,2.83
2022-11-25T09:34:09.925Z,3.25
2022-11-25T09:36:36.757Z,3.13
2022-11-25T09:39:03.914Z,3.05
2022-11-25T09:42:07.150Z,2.92
2022-11-25T09:45:17.538Z,2.60
2022-11-25T09:48:08.695Z,3.20
2022-11-25T09:51:00.454Z,2.95
2022-11-25T09:53:36.161Z,2.83
2022-11-25T09:56:08.600Z,2.35
2022-11-25T09:58:58.533Z,2.83
2022-11-25T10:01:28.401Z,2.78
2022-11-25T10:04:09.185Z,2.78
2022-11-25T10:06:40.528Z,2.92
2022-11-25T10:09:15.497Z,2.60
2022-11-25T10:11:58.445Z,2.95
2022-11-25T10:14:33.225Z,3.08
2022-11-25T10:17:25.229Z,2.80
2022-11-25T10:20:16.849Z,2.47
2022-11-25T10:22:50.391Z,2.80
2022-11-25T10:25:20.296Z,2.47
2022-11-25T10:27:59.235Z,2.15
2022-11-25T10:30:38.091Z,2.45
2022-11-25T10:33:21.118Z,2.40
2022-11-25T10:35:57.125Z,2.47
2022-11-25T10:38:35.166Z,2.20
2022-11-25T10:41:03.969Z,2.33
2022-11-25T10:43:32.735Z,2.30
2022-11-25T10:46:20.931Z,2.22
2022-11-25T10:49:22.821Z,2.40
2022-11-25T10:51:50.991Z,2.63
2022-11-25T10:54:27.560Z,2.42
2022-11-25T10:56:57.711Z,2.75
2022-11-25T10:59:36.790Z,2.47
2022-11-25T11:02:29.970Z,3.10
2022-11-25T11:05:22.316Z,3.20
2022-11-25T11:08:09.445Z,3.05
2022-11-25T11:10:36.761Z,2.70
2022-11-25T11:13:25.797Z,2.85
2022-11-25T11:15:54.343Z,3.08
2022-11-25T11:18:28.538Z,3.65
2022-11-25T11:21:00.329Z,3.20
2022-11-25T11:23:28.507Z,3.42
2022-11-25T11:25:58.277Z,3.67
2022-11-25T11:28:34.838Z,3.38
2022-11-25T11:31:19.530Z,3.40
2022-11-25T11:36:57.777Z,2.55
2022-11-25T11:40:00.113Z,3.72
2022-11-25T11:43:00.760Z,3.67
2022-11-25T11:45:35.768Z,3.17
2022-11-25T11:48:18.989Z,2.75
2022-11-25T11:51:18.067Z,2.80
2022-11-25T11:54:03.971Z,4.03
2022-11-25T11:56:50.654Z,2.80
2022-11-25T11:59:49.523Z,2.58
2022-11-25T12:02:28.127Z,2.70
2022-11-25T12:05:11.171Z,3.10
2022-11-25T12:07:52.956Z,2.85
2022-11-25T12:10:22.824Z,2.40
2022-11-25T12:13:08.012Z,2.70
2022-11-25T12:15:41.393Z,2.30
2022-11-25T12:18:46.038Z,2.38
2022-11-25T12:21:51.038Z,2.77
2022-11-25T12:24:36.619Z,2.45
2022-11-25T12:27:08.655Z,3.03
2022-11-25T12:30:17.842Z,2.60
2022-11-25T12:33:10.280Z,3.50
2022-11-25T12:35:37.589Z,3.35
2022-11-25T12:38:32.881Z,3.92
2022-11-25T12:41:18.432Z,4.82
2022-11-25T12:44:06.170Z,7.75
2022-11-25T12:46:44.919Z,4.50
2022-11-25T12:49:24.614Z,5.82
2022-11-25T12:52:25.590Z,6.90
2022-11-25T12:55:19.847Z,4.70
2022-11-25T12:58:15.842Z,11.07
2022-11-25T13:01:07.395Z,5.63
2022-11-25T13:03:52.905Z,5.45
2022-11-25T13:06:38.872Z,4.93
2022-11-25T13:09:43.781Z,3.22
2022-11-25T13:12:49.464Z,4.75
2022-11-25T13:15:26.600Z,4.10
2022-11-25T13:18:04.526Z,3.70
2022-11-25T13:20:31.224Z,3.40
2022-11-25T13:23:22.690Z,4.25
2022-11-25T13:25:51.234Z,3.72
2022-11-25T13:28:38.101Z,2.90
2022-11-25T13:31:13.965Z,4.28
2022-11-25T13:33:43.899Z,3.15
2022-11-25T13:36:21.201Z,3.70
2022-11-25T13:38:51.029Z,3.85
2022-11-25T13:41:20.823Z,3.13
2022-11-25T13:44:15.352Z,5.40
2022-11-25T13:46:45.345Z,2.83
2022-11-25T13:49:34.454Z,3.38
2022-11-25T13:52:33.198Z,3.80
2022-11-25T13:55:02.575Z,2.85
2022-11-25T13:57:35.493Z,14.35
2022-11-25T14:00:29.418Z,4.63
2022-11-25T14:03:19.082Z,4.93
2022-11-25T14:05:59.389Z,2.95
2022-11-25T14:08:26.158Z,3.33
2022-11-25T14:11:10.901Z,5.07
2022-11-25T14:16:49.276Z,5.15
2022-11-25T14:19:56.247Z,3.35
2022-11-25T14:22:39.088Z,3.30
2022-11-25T14:25:35.781Z,3.42
2022-11-25T14:28:22.012Z,4.00
2022-11-25T14:30:53.749Z,4.03
2022-11-25T14:33:31.650Z,3.97
2022-11-25T14:36:31.701Z,4.30
2022-11-25T14:39:06.167Z,4.18
2022-11-25T14:44:12.934Z,4.90
2022-11-25T14:46:57.378Z,5.50
2022-11-25T14:49:45.180Z,5.25
2022-11-25T14:52:35.917Z,5.43
2022-11-25T14:55:05.735Z,4.60
2022-11-25T14:57:43.289Z,5.10
2022-11-25T15:00:15.840Z,4.47
2022-11-25T15:03:01.172Z,4.38
2022-11-25T15:05:34.518Z,20.02
2022-11-25T15:08:13.376Z,20.30
2022-11-25T15:10:46.030Z,37.75
2022-11-25T15:13:24.362Z,29.73
2022-11-25T15:15:52.503Z,14.60
2022-11-25T15:18:21.826Z,11.27
2022-11-25T15:20:51.273Z,7.43
2022-11-25T15:23:24.380Z,6.50
2022-11-25T15:25:54.971Z,6.45
2022-11-25T15:28:21.853Z,5.85
2022-11-25T15:30:59.973Z,6.35
2022-11-25T15:33:28.867Z,6.18
2022-11-25T15:35:56.128Z,6.95
2022-11-25T15:38:52.551Z,7.43
2022-11-25T15:41:33.437Z,6.05
2022-11-25T15:44:03.657Z,6.20
2022-11-25T15:46:33.451Z,6.78
2022-11-25T15:49:04.482Z,7.10
2022-11-25T15:51:44.347Z,7.65
2022-11-25T15:54:38.041Z,8.13
2022-11-25T15:57:14.897Z,7.47
2022-11-25T15:59:55.484Z,7.82
2022-11-25T16:02:40.084Z,7.35
2022-11-25T16:05:37.903Z,5.85
2022-11-25T16:08:31.148Z,6.03
2022-11-25T16:11:29.448Z,6.03
2022-11-25T16:14:18.737Z,5.75
2022-11-25T16:16:47.423Z,6.82
2022-11-25T16:19:23.021Z,6.60
2022-11-25T16:21:58.741Z,9.25
2022-11-25T16:24:46.049Z,10.20
2022-11-25T16:27:19.364Z,10.82
2022-11-25T16:30:18.425Z,11.02
2022-11-25T16:32:45.434Z,16.70
2022-11-25T16:35:18.280Z,10.70
2022-11-25T16:37:48.870Z,8.60
2022-11-25T16:40:17.727Z,8.57
2022-11-25T16:42:50.407Z,9.95
2022-11-25T16:45:26.803Z,8.63
2022-11-25T16:47:53.642Z,9.52
2022-11-25T16:50:21.662Z,10.75
2022-11-25T16:52:49.829Z,19.05
2022-11-25T16:55:18.528Z,20.88
2022-11-25T16:57:45.561Z,23.25
2022-11-25T17:00:16.868Z,35.13
2022-11-25T17:02:44.882Z,19.35
2022-11-25T17:05:23.718Z,14.15
2022-11-25T17:07:50.492Z,15.88
2022-11-25T17:10:18.059Z,13.57
2022-11-25T17:12:45.963Z,16.25
2022-11-25T17:15:19.764Z,15.15
2022-11-25T17:17:48.009Z,13.88
2022-11-25T17:20:21.799Z,13.95
2022-11-25T17:22:49.382Z,14.38
2022-11-25T17:25:16.275Z,12.50
2022-11-25T17:27:46.007Z,13.38
2022-11-25T17:30:27.339Z,10.82
2022-11-25T17:33:06.506Z,10.52
2022-11-25T17:35:33.457Z,10.68
2022-11-25T17:38:01.490Z,11.18
2022-11-25T17:40:28.341Z,13.15
2022-11-25T17:42:55.180Z,12.88
2022-11-25T17:45:22.272Z,12.38
2022-11-25T17:47:49.036Z,12.55
2022-11-25T17:50:25.520Z,12.15
2022-11-25T17:52:52.516Z,7.22
2022-11-25T17:55:21.853Z,5.50
2022-11-25T17:57:52.376Z,6.45
2022-11-25T18:00:21.569Z,6.95
2022-11-25T18:02:49.698Z,6.75
2022-11-25T18:05:22.653Z,8.02
2022-11-25T18:07:50.051Z,7.68
2022-11-25T18:10:19.999Z,8.68
2022-11-25T18:12:48.820Z,6.22
2022-11-25T18:15:27.157Z,5.60
2022-11-25T18:18:19.256Z,4.63
2022-11-25T18:20:46.077Z,5.55
2022-11-25T18:23:12.882Z,6.22
2022-11-25T18:25:40.213Z,6.05
2022-11-25T18:28:07.578Z,9.00
2022-11-25T18:30:36.298Z,36.90
2022-11-25T18:33:05.581Z,36.63
2022-11-25T18:35:36.475Z,13.05
2022-11-25T18:38:04.330Z,11.95
2022-11-25T18:40:31.398Z,15.73
2022-11-25T18:43:01.565Z,15.23
2022-11-25T18:45:33.086Z,19.10
2022-11-25T18:48:00.132Z,18.38
2022-11-25T18:50:27.680Z,17.38
2022-11-25T18:52:54.718Z,14.90
2022-11-25T18:55:23.306Z,13.48
2022-11-25T18:57:51.949Z,13.93
2022-11-25T19:00:32.163Z,17.75
2022-11-25T19:02:59.774Z,17.90
2022-11-25T19:05:31.371Z,14.25
2022-11-25T19:07:58.348Z,11.57
2022-11-25T19:10:29.429Z,12.45
2022-11-25T19:13:00.448Z,11.88
2022-11-25T19:15:27.840Z,11.63
2022-11-25T19:18:00.436Z,11.93
2022-11-25T19:20:28.517Z,11.73
2022-11-25T19:23:00.401Z,10.95
2022-11-25T19:25:27.493Z,11.30
2022-11-25T19:27:57.307Z,12.05
2022-11-25T19:30:27.518Z,11.85
2022-11-25T19:32:56.860Z,11.55
2022-11-25T19:35:29.432Z,11.35
2022-11-25T19:37:56.085Z,11.27
2022-11-25T19:40:25.083Z,15.57
2022-11-25T19:42:51.861Z,16.15
2022-11-25T19:45:20.498Z,13.38
2022-11-25T19:47:50.373Z,13.63
2022-11-25T19:50:27.643Z,13.57
2022-11-25T19:52:55.076Z,13.55
2022-11-25T19:55:25.037Z,13.55
2022-11-25T19:57:52.963Z,11.75
2022-11-25T20:00:21.333Z,10.20
2022-11-25T20:02:51.364Z,8.82
2022-11-25T20:05:22.487Z,8.50
2022-11-25T20:07:49.284Z,9.73
2022-11-25T20:10:23.195Z,10.80
2022-11-25T20:12:52.276Z,15.23
2022-11-25T20:15:19.409Z,24.02
2022-11-25T20:17:53.733Z,32.63
2022-11-25T20:20:33.576Z,33.50
2022-11-25T20:23:03.051Z,38.33
2022-11-25T20:25:30.379Z,44.60
2022-11-25T20:27:57.149Z,23.55
2022-11-25T20:30:26.081Z,25.95
2022-11-25T20:32:53.245Z,26.73
2022-11-25T20:35:20.928Z,27.05
2022-11-25T20:37:51.637Z,26.95
2022-11-25T20:40:21.827Z,20.23
2022-11-25T20:42:50.481Z,15.27
2022-11-25T20:45:19.511Z,14.40
2022-11-25T20:58:48.408Z,14.63
2022-11-25T21:01:16.893Z,10.63
2022-11-25T21:03:45.111Z,8.02
2022-11-25T21:06:19.810Z,9.13
2022-11-25T21:08:48.906Z,8.35
2022-11-25T21:11:19.137Z,7.63
2022-11-25T21:13:46.286Z,6.45
2022-11-25T21:16:13.437Z,7.18
2022-11-25T21:18:41.385Z,6.95
2022-11-25T21:21:17.956Z,7.00
2022-11-25T21:23:46.914Z,9.43
2022-11-25T21:26:19.578Z,11.90
2022-11-25T21:28:47.995Z,13.77
2022-11-25T21:31:17.553Z,14.57
2022-11-25T21:33:48.237Z,13.57
2022-11-25T21:36:25.512Z,11.50
2022-11-25T21:39:00.882Z,11.13
2022-11-25T21:41:27.598Z,11.48
2022-11-25T21:43:54.435Z,12.32
2022-11-25T21:46:26.347Z,17.48
2022-11-25T21:48:53.190Z,17.00
2022-11-25T21:51:24.057Z,17.00
2022-11-25T21:53:52.000Z,16.83
2022-11-25T21:56:27.045Z,16.38
2022-11-25T21:58:54.586Z,15.93
2022-11-25T22:01:22.408Z,17.10
2022-11-25T22:03:49.281Z,17.75
2022-11-25T22:06:27.748Z,17.48
2022-11-25T22:08:55.084Z,15.07
2022-11-25T22:11:28.766Z,13.85
2022-11-25T22:13:55.512Z,12.67
2022-11-25T22:16:31.196Z,11.68
2022-11-25T22:18:58.354Z,9.10
2022-11-25T22:21:25.351Z,10.07
2022-11-25T22:23:52.132Z,10.93
2022-11-25T22:26:29.858Z,11.13
2022-11-25T22:28:57.291Z,9.40
2022-11-25T22:31:24.700Z,8.15
2022-11-25T22:33:51.766Z,8.27
2022-11-25T22:36:31.684Z,11.05
2022-11-25T22:39:19.933Z,14.80
2022-11-25T22:41:54.957Z,17.08
2022-11-25T22:44:32.221Z,15.90
2022-11-25T22:46:59.445Z,16.65
2022-11-25T22:49:31.342Z,23.42
2022-11-25T22:51:58.509Z,16.38
2022-11-25T22:54:25.840Z,7.45
2022-11-25T22:56:52.534Z,9.18
2022-11-25T22:59:19.288Z,10.30
2022-11-25T23:01:46.320Z,11.85
2022-11-25T23:04:20.468Z,16.77
2022-11-25T23:06:48.034Z,18.33
2022-11-25T23:09:18.306Z,16.10
2022-11-25T23:11:45.992Z,11.27
2022-11-25T23:14:12.770Z,9.15
2022-11-25T23:16:41.521Z,8.68
2022-11-25T23:19:18.769Z,9.90
2022-11-25T23:21:45.937Z,7.30
2022-11-25T23:24:17.164Z,7.15
2022-11-25T23:26:44.380Z,5.95
2022-11-25T23:29:11.143Z,6.10
2022-11-25T23:31:39.575Z,6.00
2022-11-25T23:34:07.884Z,6.70
2022-11-25T23:36:44.930Z,5.63
2022-11-25T23:39:23.980Z,5.57
2022-11-25T23:41:51.444Z,7.53
2022-11-25T23:44:25.528Z,6.65
2022-11-25T23:46:54.660Z,6.63
2022-11-25T23:49:26.811Z,6.50
2022-11-25T23:51:57.216Z,6.30
2022-11-25T23:54:31.113Z,6.63
2022-11-25T23:56:57.912Z,6.60
2022-11-25T23:59:30.663Z,6.78
